Latest Weather Observations for Esperance Harbour

IDW60801

Issued at 2:32 pm WST Wednesday 29 July 2015 (issued every 30 minutes, with the page automatically refreshed every 10 minutes)

About weather observations | Map of weather stations | Latest weather observations for WA | Other Formats
Station Details ID: 109504 Name: ESPERANCE NTC AWS Lat: -33.87 Lon: 121.90 Height: 0.0 m
Data from the previous 72 hours. | See also: Recent months for locations in Western Australia
Date/Time
WST
Temp
°C
App
Temp
°C
Dew
Point
Rel
Hum
%
Delta-T
°C
Wind Press
QNH
hPa
Press
MSL
hPa
Rain
since 9 am
mm
Dir
 
Spd
km/h
Gust
km/h
Spd
kts
Gust
kts
29/02:30pm 16.0 - - - - - - - - - 1016.6 1016.6 -
29/02:00pm 15.9 - - - - - - - - - 1016.4 1016.4 -
29/01:30pm 15.9 - - - - - - - - - 1016.3 1016.3 -
29/01:00pm 15.9 - - - - - - - - - 1016.5 1016.5 -
29/12:30pm 15.9 - - - - - - - - - 1016.8 1016.8 -
29/12:00pm 15.9 - - - - - - - - - 1017.0 1017.0 -
29/11:30am 15.9 - - - - - - - - - 1017.5 1017.5 -
29/11:00am 15.8 - - - - - - - - - 1017.6 1017.6 -
29/10:30am 15.4 - - - - - - - - - 1017.6 1017.6 -
29/10:00am 14.0 - - - - - - - - - 1017.9 1017.9 -
29/09:30am 13.1 - - - - - - - - - 1018.0 1018.0 -
29/09:00am 12.1 - - - - - - - - - 1017.7 1017.7 -
29/08:30am 11.0 - - - - - - - - - 1017.6 1017.6 -
29/08:00am 10.4 - - - - - - - - - 1017.6 1017.6 -
29/07:30am 9.9 - - - - - - - - - 1017.4 1017.4 -
29/07:00am 9.7 - - - - - - - - - 1017.0 1017.0 -
29/06:30am 9.8 - - - - - - - - - 1016.8 1016.8 -
29/06:00am 10.0 - - - - - - - - - 1016.4 1016.4 -
29/05:30am 9.9 - - - - - - - - - 1016.2 1016.2 -
29/05:00am 10.2 - - - - - - - - - 1016.0 1016.0 -
29/04:30am 10.6 - - - - - - - - - 1015.9 1015.9 -
29/04:00am 10.8 - - - - - - - - - 1015.9 1015.9 -
29/03:30am 11.1 - - - - - - - - - 1015.8 1015.8 -
29/03:00am 11.5 - - - - - - - - - 1015.9 1015.9 -
29/02:30am 11.8 - - - - - - - - - 1016.1 1016.1 -
29/02:00am 12.4 - - - - - - - - - 1016.3 1016.3 -
29/01:30am 12.7 - - - - - - - - - 1016.6 1016.6 -
29/01:00am 12.5 - - - - - - - - - 1016.8 1016.8 -
29/12:30am 12.6 - - - - - - - - - 1016.7 1016.7 -
29/12:00am 12.4 - - - - - - - - - 1017.1 1017.1 -
 
Date/Time
WST
Temp
°C
App
Temp
°C
Dew
Point
Rel
Hum
%
Delta-T
°C
Wind Press
QNH
hPa
Press
MSL
hPa
Rain
since 9 am
mm
Dir
 
Spd
km/h
Gust
km/h
Spd
kts
Gust
kts
28/11:30pm 12.7 - - - - - - - - - 1017.3 1017.3 -
28/11:00pm 12.7 - - - - - - - - - 1017.9 1017.9 -
28/10:30pm 12.7 - - - - - - - - - 1018.1 1018.1 -
28/10:00pm 13.1 - - - - - - - - - 1018.3 1018.3 -
28/09:30pm 13.3 - - - - - - - - - 1018.5 1018.5 -
28/09:00pm 13.5 - - - - - - - - - 1018.7 1018.7 -
28/08:30pm 13.7 - - - - - - - - - 1018.7 1018.7 -
28/08:00pm 13.8 - - - - - - - - - 1018.6 1018.6 -
28/07:30pm 14.1 - - - - - - - - - 1018.8 1018.8 -
28/07:00pm 14.3 - - - - - - - - - 1018.4 1018.4 -
28/06:30pm 14.6 - - - - - - - - - 1018.2 1018.2 -
28/06:00pm 14.1 - - - - - - - - - 1018.1 1018.1 -
28/05:30pm 14.2 - - - - - - - - - 1018.4 1018.4 -
28/05:00pm 14.0 - - - - - - - - - 1019.0 1019.0 -
28/04:30pm 14.1 - - - - - - - - - 1019.1 1019.1 -
28/04:00pm 14.0 - - - - - - - - - 1018.3 1018.3 -
28/03:30pm 13.9 - - - - - - - - - 1018.9 1018.9 -
28/03:00pm 14.0 - - - - - - - - - 1019.4 1019.4 -
28/02:30pm 14.2 - - - - - - - - - 1019.4 1019.4 -
28/02:00pm 14.2 - - - - - - - - - 1020.0 1020.0 -
28/01:30pm 14.0 - - - - - - - - - 1020.2 1020.2 -
28/01:00pm 13.8 - - - - - - - - - 1021.1 1021.0 -
28/12:30pm 13.9 - - - - - - - - - 1020.9 1020.8 -
28/12:00pm 13.5 - - - - - - - - - 1022.2 1022.1 -
28/11:30am 13.5 - - - - - - - - - 1022.8 1022.7 -
28/11:00am 13.2 - - - - - - - - - 1023.6 1023.5 -
28/10:30am 13.0 - - - - - - - - - 1024.5 1024.4 -
28/10:00am 12.3 - - - - - - - - - 1025.0 1024.9 -
28/09:30am 11.8 - - - - - - - - - 1025.4 1025.3 -
28/09:00am 11.8 - - - - - - - - - 1025.7 1025.6 -
28/08:30am 11.3 - - - - - - - - - 1026.1 1026.0 -
28/08:00am 10.7 - - - - - - - - - 1026.5 1026.4 -
28/07:30am 10.5 - - - - - - - - - 1026.5 1026.4 -
28/07:00am 10.1 - - - - - - - - - 1026.6 1026.5 -
28/06:30am 10.4 - - - - - - - - - 1026.9 1026.8 -
28/06:00am 10.2 - - - - - - - - - 1026.8 1026.7 -
28/05:30am 10.2 - - - - - - - - - 1027.0 1026.9 -
28/05:00am 10.0 - - - - - - - - - 1026.7 1026.6 -
28/04:30am 10.0 - - - - - - - - - 1026.5 1026.4 -
28/04:00am 10.1 - - - - - - - - - 1026.6 1026.5 -
28/03:30am 10.0 - - - - - - - - - 1027.0 1026.9 -
28/03:00am 9.6 - - - - - - - - - 1027.7 1027.6 -
28/02:30am 10.1 - - - - - - - - - 1027.7 1027.6 -
28/02:00am 10.3 - - - - - - - - - 1027.8 1027.7 -
28/01:30am 10.8 - - - - - - - - - 1028.0 1027.9 -
28/01:00am 10.4 - - - - - - - - - 1028.2 1028.1 -
28/12:30am 10.6 - - - - - - - - - 1028.5 1028.4 -
28/12:00am 10.7 - - - - - - - - - 1028.6 1028.5 -
 
Date/Time
WST
Temp
°C
App
Temp
°C
Dew
Point
Rel
Hum
%
Delta-T
°C
Wind Press
QNH
hPa
Press
MSL
hPa
Rain
since 9 am
mm
Dir
 
Spd
km/h
Gust
km/h
Spd
kts
Gust
kts
27/11:30pm 10.6 - - - - - - - - - 1028.7 1028.6 -
27/11:00pm 11.4 - - - - - - - - - 1028.9 1028.8 -
27/10:30pm 12.2 - - - - - - - - - 1029.1 1029.0 -
27/10:00pm 11.9 - - - - - - - - - 1029.5 1029.4 -
27/09:30pm 11.9 - - - - - - - - - 1029.6 1029.5 -
27/09:00pm 12.7 - - - - - - - - - 1029.7 1029.6 -
27/08:30pm 12.6 - - - - - - - - - 1030.0 1029.9 -
27/08:00pm 13.2 - - - - - - - - - 1030.2 1030.1 -
27/07:30pm 13.4 - - - - - - - - - 1030.3 1030.2 -
27/07:00pm 13.0 - - - - - - - - - 1030.1 1030.0 -
27/06:30pm 13.6 - - - - - - - - - 1029.7 1029.6 -
27/06:00pm 13.4 - - - - - - - - - 1029.1 1029.0 -
27/05:30pm 14.1 - - - - - - - - - 1029.2 1029.1 -
27/05:00pm 15.8 - - - - - - - - - 1028.9 1028.8 -
27/04:30pm 16.3 - - - - - - - - - 1029.6 1029.5 -
27/04:00pm 16.1 - - - - - - - - - 1029.8 1029.7 -
27/03:30pm 16.2 - - - - - - - - - 1030.0 1029.9 -
27/03:00pm 15.9 - - - - - - - - - 1030.0 1029.9 -
27/02:30pm 15.7 - - - - - - - - - 1029.9 1029.8 -
27/02:00pm 15.6 - - - - - - - - - 1029.9 1029.8 -
27/01:30pm 15.2 - - - - - - - - - 1030.1 1030.0 -
27/01:00pm 14.9 - - - - - - - - - 1030.8 1030.7 -
27/12:30pm 14.8 - - - - - - - - - 1031.7 1031.6 -
27/12:00pm 14.5 - - - - - - - - - 1032.1 1032.0 -
27/11:30am 14.1 - - - - - - - - - 1032.7 1032.6 -
27/11:00am 13.3 - - - - - - - - - 1033.2 1033.1 -
27/10:30am 12.5 - - - - - - - - - 1033.7 1033.6 -
27/10:00am 11.7 - - - - - - - - - 1034.4 1034.3 -
27/09:30am 10.7 - - - - - - - - - 1034.7 1034.6 -
27/09:00am 9.7 - - - - - - - - - 1035.0 1034.9 -
27/08:30am 8.8 - - - - - - - - - 1035.1 1035.0 -
27/08:00am 8.2 - - - - - - - - - 1035.0 1034.9 -
27/07:30am 7.5 - - - - - - - - - 1035.1 1035.0 -
27/07:00am 7.5 - - - - - - - - - 1034.6 1034.5 -
27/06:30am 7.9 - - - - - - - - - 1033.9 1033.8 -
27/06:00am 8.3 - - - - - - - - - 1033.5 1033.4 -
27/05:30am 8.6 - - - - - - - - - 1033.3 1033.2 -
27/05:00am 8.6 - - - - - - - - - 1033.3 1033.2 -
27/04:30am 9.2 - - - - - - - - - 1033.0 1032.9 -
27/04:00am 9.2 - - - - - - - - - 1033.0 1032.9 -
27/03:30am 9.5 - - - - - - - - - 1033.0 1032.9 -
27/03:00am 9.9 - - - - - - - - - 1032.9 1032.8 -
27/02:30am 10.2 - - - - - - - - - 1033.0 1032.9 -
27/02:00am 10.6 - - - - - - - - - 1033.1 1033.0 -
27/01:30am 10.7 - - - - - - - - - 1033.3 1033.2 -
27/01:00am 11.6 - - - - - - - - - 1033.4 1033.3 -
27/12:30am 10.9 - - - - - - - - - 1033.7 1033.6 -
27/12:00am 10.9 - - - - - - - - - 1034.1 1034.0 -
 
Date/Time
WST
Temp
°C
App
Temp
°C
Dew
Point
Rel
Hum
%
Delta-T
°C
Wind Press
QNH
hPa
Press
MSL
hPa
Rain
since 9 am
mm
Dir
 
Spd
km/h
Gust
km/h
Spd
kts
Gust
kts
26/11:30pm 10.8 - - - - - - - - - 1034.0 1033.9 -
26/11:00pm 10.8 - - - - - - - - - 1033.9 1033.8 -
26/10:30pm 10.6 - - - - - - - - - 1033.5 1033.4 -
26/10:00pm 10.1 - - - - - - - - - 1033.6 1033.5 -
26/09:30pm 10.2 - - - - - - - - - 1033.6 1033.5 -
26/09:00pm 10.4 - - - - - - - - - 1033.6 1033.5 -
26/08:30pm 10.7 - - - - - - - - - 1033.7 1033.6 -
26/08:00pm 10.8 - - - - - - - - - 1033.6 1033.5 -
26/07:30pm 11.1 - - - - - - - - - 1033.5 1033.4 -
26/07:00pm 11.1 - - - - - - - - - 1033.2 1033.1 -
26/06:30pm 11.9 - - - - - - - - - 1032.8 1032.7 -
26/06:00pm 12.5 - - - - - - - - - 1032.8 1032.7 -
26/05:30pm 12.7 - - - - - - - - - 1032.6 1032.5 -
26/05:00pm 12.9 - - - - - - - - - 1032.6 1032.5 -
26/04:30pm 13.0 - - - - - - - - - 1032.5 1032.4 -
26/04:00pm 13.0 - - - - - - - - - 1032.4 1032.3 -
26/03:30pm 13.0 - - - - - - - - - 1032.2 1032.1 -
26/03:00pm 13.0 - - - - - - - - - 1031.9 1031.8 -

Other Formats:

Comma delimited format used in spreadsheet applications
http://www.bom.gov.au/fwo/IDW60801/IDW60801.95648.axf

JavaScript Object Notation format (JSON) in row-major order
http://www.bom.gov.au/fwo/IDW60801/IDW60801.95648.json